sensor_id;sensor_type;location;lat;lon;timestamp;P1;durP1;ratioP1;P2;durP2;ratioP2
16689;SDS011;8458;52.220;9.884;2022-10-31T00:00:59;5.17;;;3.80;;
16689;SDS011;8458;52.220;9.884;2022-10-31T00:03:28;4.80;;;3.70;;
16689;SDS011;8458;52.220;9.884;2022-10-31T00:05:54;4.77;;;4.00;;
16689;SDS011;8458;52.220;9.884;2022-10-31T00:08:21;5.10;;;3.73;;
16689;SDS011;8458;52.220;9.884;2022-10-31T00:10:47;4.40;;;3.33;;
16689;SDS011;8458;52.220;9.884;2022-10-31T00:13:14;6.60;;;3.80;;
16689;SDS011;8458;52.220;9.884;2022-10-31T00:15:41;4.20;;;3.67;;
16689;SDS011;8458;52.220;9.884;2022-10-31T00:18:08;4.40;;;3.43;;
16689;SDS011;8458;52.220;9.884;2022-10-31T00:20:37;5.17;;;3.97;;
16689;SDS011;8458;52.220;9.884;2022-10-31T00:23:04;4.83;;;4.10;;
16689;SDS011;8458;52.220;9.884;2022-10-31T00:25:33;4.67;;;3.70;;
16689;SDS011;8458;52.220;9.884;2022-10-31T00:28:02;4.50;;;4.10;;
16689;SDS011;8458;52.220;9.884;2022-10-31T00:30:29;6.50;;;4.10;;
16689;SDS011;8458;52.220;9.884;2022-10-31T00:32:56;4.60;;;4.00;;
16689;SDS011;8458;52.220;9.884;2022-10-31T00:35:22;5.10;;;4.23;;
16689;SDS011;8458;52.220;9.884;2022-10-31T00:37:51;4.07;;;3.63;;
16689;SDS011;8458;52.220;9.884;2022-10-31T00:40:18;4.50;;;4.07;;
16689;SDS011;8458;52.220;9.884;2022-10-31T00:42:44;4.20;;;3.73;;
16689;SDS011;8458;52.220;9.884;2022-10-31T00:45:11;4.33;;;3.93;;
16689;SDS011;8458;52.220;9.884;2022-10-31T00:47:37;4.43;;;4.00;;
16689;SDS011;8458;52.220;9.884;2022-10-31T00:50:04;4.80;;;4.30;;
16689;SDS011;8458;52.220;9.884;2022-10-31T00:52:31;5.87;;;4.00;;
16689;SDS011;8458;52.220;9.884;2022-10-31T00:54:59;4.37;;;3.93;;
16689;SDS011;8458;52.220;9.884;2022-10-31T00:57:25;4.90;;;4.13;;
16689;SDS011;8458;52.220;9.884;2022-10-31T00:59:52;5.37;;;4.50;;
16689;SDS011;8458;52.220;9.884;2022-10-31T01:02:18;7.50;;;4.50;;
16689;SDS011;8458;52.220;9.884;2022-10-31T01:04:45;5.47;;;4.20;;
16689;SDS011;8458;52.220;9.884;2022-10-31T01:07:11;4.80;;;4.30;;
16689;SDS011;8458;52.220;9.884;2022-10-31T01:09:39;5.20;;;4.47;;
16689;SDS011;8458;52.220;9.884;2022-10-31T01:12:07;5.67;;;4.77;;
16689;SDS011;8458;52.220;9.884;2022-10-31T01:14:33;4.83;;;4.33;;
16689;SDS011;8458;52.220;9.884;2022-10-31T01:16:59;5.53;;;4.40;;
16689;SDS011;8458;52.220;9.884;2022-10-31T01:19:26;5.33;;;4.80;;
16689;SDS011;8458;52.220;9.884;2022-10-31T01:21:53;6.73;;;4.70;;
16689;SDS011;8458;52.220;9.884;2022-10-31T01:24:20;5.57;;;4.60;;
16689;SDS011;8458;52.220;9.884;2022-10-31T01:26:47;5.47;;;4.77;;
16689;SDS011;8458;52.220;9.884;2022-10-31T01:29:15;5.93;;;4.60;;
16689;SDS011;8458;52.220;9.884;2022-10-31T01:31:41;6.17;;;4.77;;
16689;SDS011;8458;52.220;9.884;2022-10-31T01:34:08;4.97;;;4.53;;
16689;SDS011;8458;52.220;9.884;2022-10-31T01:36:39;4.97;;;4.40;;
16689;SDS011;8458;52.220;9.884;2022-10-31T01:39:08;5.60;;;4.87;;
16689;SDS011;8458;52.220;9.884;2022-10-31T01:41:36;7.20;;;5.33;;
16689;SDS011;8458;52.220;9.884;2022-10-31T01:47:06;5.23;;;4.63;;
16689;SDS011;8458;52.220;9.884;2022-10-31T01:49:40;5.40;;;4.90;;
16689;SDS011;8458;52.220;9.884;2022-10-31T01:52:11;4.90;;;4.50;;
16689;SDS011;8458;52.220;9.884;2022-10-31T01:54:43;6.10;;;5.00;;
16689;SDS011;8458;52.220;9.884;2022-10-31T01:57:15;6.83;;;4.93;;
16689;SDS011;8458;52.220;9.884;2022-10-31T01:59:46;5.60;;;5.17;;
16689;SDS011;8458;52.220;9.884;2022-10-31T02:02:17;8.60;;;5.17;;
16689;SDS011;8458;52.220;9.884;2022-10-31T02:04:44;6.00;;;5.40;;
16689;SDS011;8458;52.220;9.884;2022-10-31T02:07:13;6.30;;;5.77;;
16689;SDS011;8458;52.220;9.884;2022-10-31T02:09:42;6.83;;;5.50;;
16689;SDS011;8458;52.220;9.884;2022-10-31T02:12:11;7.13;;;5.93;;
16689;SDS011;8458;52.220;9.884;2022-10-31T02:14:38;7.23;;;6.47;;
16689;SDS011;8458;52.220;9.884;2022-10-31T02:17:06;7.60;;;6.97;;
16689;SDS011;8458;52.220;9.884;2022-10-31T02:19:35;7.93;;;7.13;;
16689;SDS011;8458;52.220;9.884;2022-10-31T02:22:11;7.63;;;6.93;;
16689;SDS011;8458;52.220;9.884;2022-10-31T02:24:46;7.80;;;7.10;;
16689;SDS011;8458;52.220;9.884;2022-10-31T02:27:31;8.60;;;6.80;;
16689;SDS011;8458;52.220;9.884;2022-10-31T02:30:14;10.93;;;7.57;;
16689;SDS011;8458;52.220;9.884;2022-10-31T02:32:49;7.50;;;6.80;;
16689;SDS011;8458;52.220;9.884;2022-10-31T02:35:28;7.83;;;7.03;;
16689;SDS011;8458;52.220;9.884;2022-10-31T02:38:09;8.17;;;7.47;;
16689;SDS011;8458;52.220;9.884;2022-10-31T02:40:48;8.37;;;7.40;;
16689;SDS011;8458;52.220;9.884;2022-10-31T02:43:25;7.23;;;6.67;;
16689;SDS011;8458;52.220;9.884;2022-10-31T02:45:57;7.53;;;6.93;;
16689;SDS011;8458;52.220;9.884;2022-10-31T02:48:29;7.77;;;6.90;;
16689;SDS011;8458;52.220;9.884;2022-10-31T02:51:00;8.20;;;7.40;;
16689;SDS011;8458;52.220;9.884;2022-10-31T02:53:31;9.70;;;8.13;;
16689;SDS011;8458;52.220;9.884;2022-10-31T02:56:00;8.83;;;7.97;;
16689;SDS011;8458;52.220;9.884;2022-10-31T02:58:30;9.47;;;8.77;;
16689;SDS011;8458;52.220;9.884;2022-10-31T03:03:54;11.03;;;10.03;;
16689;SDS011;8458;52.220;9.884;2022-10-31T03:06:30;10.73;;;9.83;;
16689;SDS011;8458;52.220;9.884;2022-10-31T03:09:02;10.57;;;9.33;;
16689;SDS011;8458;52.220;9.884;2022-10-31T03:11:36;9.73;;;8.93;;
16689;SDS011;8458;52.220;9.884;2022-10-31T03:14:11;9.93;;;8.93;;
16689;SDS011;8458;52.220;9.884;2022-10-31T03:16:45;9.87;;;8.87;;
16689;SDS011;8458;52.220;9.884;2022-10-31T03:19:15;9.10;;;8.40;;
16689;SDS011;8458;52.220;9.884;2022-10-31T03:21:46;9.27;;;8.53;;
16689;SDS011;8458;52.220;9.884;2022-10-31T03:24:17;9.60;;;8.73;;
16689;SDS011;8458;52.220;9.884;2022-10-31T03:26:47;11.90;;;9.13;;
16689;SDS011;8458;52.220;9.884;2022-10-31T03:29:18;9.17;;;8.37;;
16689;SDS011;8458;52.220;9.884;2022-10-31T03:31:49;9.93;;;8.93;;
16689;SDS011;8458;52.220;9.884;2022-10-31T03:34:20;9.17;;;8.47;;
16689;SDS011;8458;52.220;9.884;2022-10-31T03:36:47;9.80;;;8.67;;
16689;SDS011;8458;52.220;9.884;2022-10-31T03:39:17;9.57;;;8.77;;
16689;SDS011;8458;52.220;9.884;2022-10-31T03:41:46;10.43;;;8.43;;
16689;SDS011;8458;52.220;9.884;2022-10-31T03:44:20;10.70;;;9.67;;
16689;SDS011;8458;52.220;9.884;2022-10-31T03:46:48;11.00;;;9.80;;
16689;SDS011;8458;52.220;9.884;2022-10-31T03:49:15;10.40;;;9.60;;
16689;SDS011;8458;52.220;9.884;2022-10-31T03:51:45;9.60;;;8.90;;
16689;SDS011;8458;52.220;9.884;2022-10-31T03:54:18;10.13;;;9.33;;
16689;SDS011;8458;52.220;9.884;2022-10-31T03:56:50;9.70;;;8.90;;
16689;SDS011;8458;52.220;9.884;2022-10-31T03:59:23;10.70;;;9.80;;
16689;SDS011;8458;52.220;9.884;2022-10-31T04:01:53;13.30;;;10.73;;
16689;SDS011;8458;52.220;9.884;2022-10-31T04:04:23;11.60;;;10.70;;
16689;SDS011;8458;52.220;9.884;2022-10-31T04:06:52;12.00;;;10.87;;
16689;SDS011;8458;52.220;9.884;2022-10-31T04:09:22;11.70;;;10.70;;
16689;SDS011;8458;52.220;9.884;2022-10-31T04:11:52;12.37;;;11.17;;
16689;SDS011;8458;52.220;9.884;2022-10-31T04:14:21;13.43;;;12.07;;
16689;SDS011;8458;52.220;9.884;2022-10-31T04:16:51;12.90;;;11.90;;
16689;SDS011;8458;52.220;9.884;2022-10-31T04:19:18;12.77;;;11.57;;
16689;SDS011;8458;52.220;9.884;2022-10-31T04:21:44;12.20;;;11.23;;
16689;SDS011;8458;52.220;9.884;2022-10-31T04:24:12;13.27;;;12.07;;
16689;SDS011;8458;52.220;9.884;2022-10-31T04:26:38;12.47;;;11.47;;
16689;SDS011;8458;52.220;9.884;2022-10-31T04:29:05;14.50;;;12.87;;
16689;SDS011;8458;52.220;9.884;2022-10-31T04:31:32;14.33;;;13.13;;
16689;SDS011;8458;52.220;9.884;2022-10-31T04:33:58;14.57;;;13.43;;
16689;SDS011;8458;52.220;9.884;2022-10-31T04:36:25;13.83;;;12.73;;
16689;SDS011;8458;52.220;9.884;2022-10-31T04:38:51;13.73;;;12.73;;
16689;SDS011;8458;52.220;9.884;2022-10-31T04:41:19;14.20;;;13.10;;
16689;SDS011;8458;52.220;9.884;2022-10-31T04:43:45;13.97;;;12.97;;
16689;SDS011;8458;52.220;9.884;2022-10-31T04:46:12;13.90;;;12.57;;
16689;SDS011;8458;52.220;9.884;2022-10-31T04:48:38;14.10;;;12.90;;
16689;SDS011;8458;52.220;9.884;2022-10-31T04:51:04;13.63;;;12.47;;
16689;SDS011;8458;52.220;9.884;2022-10-31T04:53:31;17.57;;;13.83;;
16689;SDS011;8458;52.220;9.884;2022-10-31T04:55:58;14.27;;;13.07;;
16689;SDS011;8458;52.220;9.884;2022-10-31T04:58:26;14.53;;;13.03;;
16689;SDS011;8458;52.220;9.884;2022-10-31T05:00:53;14.30;;;13.03;;
16689;SDS011;8458;52.220;9.884;2022-10-31T05:03:20;14.60;;;13.57;;
16689;SDS011;8458;52.220;9.884;2022-10-31T05:05:47;15.57;;;14.03;;
16689;SDS011;8458;52.220;9.884;2022-10-31T05:08:14;14.70;;;13.30;;
16689;SDS011;8458;52.220;9.884;2022-10-31T05:10:40;13.97;;;12.73;;
16689;SDS011;8458;52.220;9.884;2022-10-31T05:13:07;14.63;;;13.43;;
16689;SDS011;8458;52.220;9.884;2022-10-31T05:15:35;15.00;;;12.60;;
16689;SDS011;8458;52.220;9.884;2022-10-31T05:18:02;13.63;;;12.50;;
16689;SDS011;8458;52.220;9.884;2022-10-31T05:20:29;13.83;;;12.53;;
16689;SDS011;8458;52.220;9.884;2022-10-31T05:22:56;13.77;;;12.43;;
16689;SDS011;8458;52.220;9.884;2022-10-31T05:25:24;14.90;;;13.60;;
16689;SDS011;8458;52.220;9.884;2022-10-31T05:27:52;14.83;;;13.63;;
16689;SDS011;8458;52.220;9.884;2022-10-31T05:30:21;14.40;;;13.30;;
16689;SDS011;8458;52.220;9.884;2022-10-31T05:32:50;15.57;;;14.00;;
16689;SDS011;8458;52.220;9.884;2022-10-31T05:35:18;14.70;;;13.07;;
16689;SDS011;8458;52.220;9.884;2022-10-31T05:37:45;14.87;;;13.67;;
16689;SDS011;8458;52.220;9.884;2022-10-31T05:40:13;15.43;;;14.17;;
16689;SDS011;8458;52.220;9.884;2022-10-31T05:42:41;14.80;;;13.30;;
16689;SDS011;8458;52.220;9.884;2022-10-31T05:45:08;14.40;;;13.20;;
16689;SDS011;8458;52.220;9.884;2022-10-31T05:47:36;14.93;;;12.87;;
16689;SDS011;8458;52.220;9.884;2022-10-31T05:50:05;13.50;;;12.43;;
16689;SDS011;8458;52.220;9.884;2022-10-31T05:52:32;13.03;;;11.93;;
16689;SDS011;8458;52.220;9.884;2022-10-31T05:54:58;13.50;;;12.40;;
16689;SDS011;8458;52.220;9.884;2022-10-31T05:57:25;14.07;;;13.00;;
16689;SDS011;8458;52.220;9.884;2022-10-31T05:59:51;14.37;;;13.10;;
16689;SDS011;8458;52.220;9.884;2022-10-31T06:02:18;12.87;;;11.97;;
16689;SDS011;8458;52.220;9.884;2022-10-31T06:04:45;12.73;;;11.73;;
16689;SDS011;8458;52.220;9.884;2022-10-31T06:07:12;13.10;;;12.10;;
16689;SDS011;8458;52.220;9.884;2022-10-31T06:09:39;12.97;;;11.87;;
16689;SDS011;8458;52.220;9.884;2022-10-31T06:12:05;12.30;;;11.37;;
16689;SDS011;8458;52.220;9.884;2022-10-31T06:14:32;13.53;;;12.40;;
16689;SDS011;8458;52.220;9.884;2022-10-31T06:16:58;13.03;;;12.03;;
16689;SDS011;8458;52.220;9.884;2022-10-31T06:19:25;11.97;;;11.17;;
16689;SDS011;8458;52.220;9.884;2022-10-31T06:21:51;12.13;;;11.33;;
16689;SDS011;8458;52.220;9.884;2022-10-31T06:24:19;11.83;;;10.80;;
16689;SDS011;8458;52.220;9.884;2022-10-31T06:26:46;12.40;;;11.40;;
16689;SDS011;8458;52.220;9.884;2022-10-31T06:29:12;12.13;;;11.27;;
16689;SDS011;8458;52.220;9.884;2022-10-31T06:31:39;11.97;;;10.90;;
16689;SDS011;8458;52.220;9.884;2022-10-31T06:34:05;9.70;;;9.00;;
16689;SDS011;8458;52.220;9.884;2022-10-31T06:36:31;9.47;;;8.87;;
16689;SDS011;8458;52.220;9.884;2022-10-31T06:38:58;8.20;;;7.70;;
16689;SDS011;8458;52.220;9.884;2022-10-31T06:41:27;8.70;;;7.93;;
16689;SDS011;8458;52.220;9.884;2022-10-31T06:43:53;10.17;;;9.37;;
16689;SDS011;8458;52.220;9.884;2022-10-31T06:46:20;13.30;;;12.30;;
16689;SDS011;8458;52.220;9.884;2022-10-31T06:48:46;10.43;;;9.73;;
16689;SDS011;8458;52.220;9.884;2022-10-31T06:51:13;10.03;;;9.33;;
16689;SDS011;8458;52.220;9.884;2022-10-31T06:53:39;10.37;;;9.53;;
16689;SDS011;8458;52.220;9.884;2022-10-31T06:56:06;10.40;;;9.67;;
16689;SDS011;8458;52.220;9.884;2022-10-31T06:58:34;11.13;;;10.20;;
16689;SDS011;8458;52.220;9.884;2022-10-31T07:01:00;12.13;;;11.33;;
16689;SDS011;8458;52.220;9.884;2022-10-31T07:03:27;11.67;;;10.77;;
16689;SDS011;8458;52.220;9.884;2022-10-31T07:05:54;12.03;;;11.17;;
16689;SDS011;8458;52.220;9.884;2022-10-31T07:08:21;10.50;;;9.77;;
16689;SDS011;8458;52.220;9.884;2022-10-31T07:10:50;11.77;;;10.77;;
16689;SDS011;8458;52.220;9.884;2022-10-31T07:13:18;10.37;;;9.67;;
16689;SDS011;8458;52.220;9.884;2022-10-31T07:15:50;11.37;;;10.57;;
16689;SDS011;8458;52.220;9.884;2022-10-31T07:18:16;11.60;;;10.77;;
16689;SDS011;8458;52.220;9.884;2022-10-31T07:20:42;10.67;;;9.90;;
16689;SDS011;8458;52.220;9.884;2022-10-31T07:23:09;10.57;;;9.70;;
16689;SDS011;8458;52.220;9.884;2022-10-31T07:25:36;11.20;;;10.40;;
16689;SDS011;8458;52.220;9.884;2022-10-31T07:28:03;11.17;;;10.33;;
16689;SDS011;8458;52.220;9.884;2022-10-31T07:30:30;11.13;;;10.33;;
16689;SDS011;8458;52.220;9.884;2022-10-31T07:32:58;12.03;;;11.20;;
16689;SDS011;8458;52.220;9.884;2022-10-31T07:35:25;11.53;;;10.73;;
16689;SDS011;8458;52.220;9.884;2022-10-31T07:37:54;14.93;;;13.60;;
16689;SDS011;8458;52.220;9.884;2022-10-31T07:40:21;16.93;;;15.77;;
16689;SDS011;8458;52.220;9.884;2022-10-31T07:42:49;15.87;;;14.70;;
16689;SDS011;8458;52.220;9.884;2022-10-31T07:45:17;16.37;;;15.37;;
16689;SDS011;8458;52.220;9.884;2022-10-31T07:47:45;15.93;;;14.67;;
16689;SDS011;8458;52.220;9.884;2022-10-31T07:50:14;14.33;;;13.43;;
16689;SDS011;8458;52.220;9.884;2022-10-31T07:52:42;14.17;;;13.27;;
16689;SDS011;8458;52.220;9.884;2022-10-31T07:55:09;12.83;;;11.97;;
16689;SDS011;8458;52.220;9.884;2022-10-31T07:57:36;12.53;;;11.50;;
16689;SDS011;8458;52.220;9.884;2022-10-31T08:00:02;11.73;;;10.60;;
16689;SDS011;8458;52.220;9.884;2022-10-31T08:02:29;10.77;;;9.90;;
16689;SDS011;8458;52.220;9.884;2022-10-31T08:04:56;11.37;;;10.57;;
16689;SDS011;8458;52.220;9.884;2022-10-31T08:07:24;10.53;;;9.83;;
16689;SDS011;8458;52.220;9.884;2022-10-31T08:09:50;11.60;;;10.60;;
16689;SDS011;8458;52.220;9.884;2022-10-31T08:12:17;12.80;;;11.80;;
16689;SDS011;8458;52.220;9.884;2022-10-31T08:14:44;12.90;;;11.53;;
16689;SDS011;8458;52.220;9.884;2022-10-31T08:17:10;13.73;;;12.67;;
16689;SDS011;8458;52.220;9.884;2022-10-31T08:19:37;13.33;;;12.33;;
16689;SDS011;8458;52.220;9.884;2022-10-31T08:22:03;13.90;;;12.80;;
16689;SDS011;8458;52.220;9.884;2022-10-31T08:24:31;14.23;;;13.33;;
16689;SDS011;8458;52.220;9.884;2022-10-31T08:26:57;14.37;;;13.47;;
16689;SDS011;8458;52.220;9.884;2022-10-31T08:29:24;14.20;;;13.30;;
16689;SDS011;8458;52.220;9.884;2022-10-31T08:31:50;13.73;;;12.73;;
16689;SDS011;8458;52.220;9.884;2022-10-31T08:34:17;13.93;;;12.80;;
16689;SDS011;8458;52.220;9.884;2022-10-31T08:36:43;14.90;;;13.70;;
16689;SDS011;8458;52.220;9.884;2022-10-31T08:39:11;13.97;;;13.03;;
16689;SDS011;8458;52.220;9.884;2022-10-31T08:41:39;14.57;;;13.47;;
16689;SDS011;8458;52.220;9.884;2022-10-31T08:44:05;16.17;;;14.67;;
16689;SDS011;8458;52.220;9.884;2022-10-31T08:46:31;16.73;;;15.30;;
16689;SDS011;8458;52.220;9.884;2022-10-31T08:48:59;15.27;;;13.80;;
16689;SDS011;8458;52.220;9.884;2022-10-31T08:51:25;15.70;;;14.40;;
16689;SDS011;8458;52.220;9.884;2022-10-31T08:53:52;14.97;;;13.67;;
16689;SDS011;8458;52.220;9.884;2022-10-31T08:56:18;15.47;;;14.07;;
16689;SDS011;8458;52.220;9.884;2022-10-31T08:58:46;15.43;;;14.23;;
16689;SDS011;8458;52.220;9.884;2022-10-31T09:01:12;15.30;;;13.80;;
16689;SDS011;8458;52.220;9.884;2022-10-31T09:03:39;15.93;;;13.63;;
16689;SDS011;8458;52.220;9.884;2022-10-31T09:06:05;14.43;;;13.33;;
16689;SDS011;8458;52.220;9.884;2022-10-31T09:08:34;14.73;;;13.63;;
16689;SDS011;8458;52.220;9.884;2022-10-31T09:11:01;14.37;;;13.27;;
16689;SDS011;8458;52.220;9.884;2022-10-31T09:13:28;14.70;;;13.53;;
16689;SDS011;8458;52.220;9.884;2022-10-31T09:15:56;13.60;;;12.60;;
16689;SDS011;8458;52.220;9.884;2022-10-31T09:18:24;15.10;;;13.67;;
16689;SDS011;8458;52.220;9.884;2022-10-31T09:20:52;14.43;;;13.33;;
16689;SDS011;8458;52.220;9.884;2022-10-31T09:23:20;13.97;;;12.97;;
16689;SDS011;8458;52.220;9.884;2022-10-31T09:25:48;15.33;;;14.00;;
16689;SDS011;8458;52.220;9.884;2022-10-31T09:28:16;16.37;;;13.50;;
16689;SDS011;8458;52.220;9.884;2022-10-31T09:30:45;15.47;;;14.07;;
16689;SDS011;8458;52.220;9.884;2022-10-31T09:33:15;17.10;;;15.47;;
16689;SDS011;8458;52.220;9.884;2022-10-31T09:35:41;16.27;;;14.87;;
16689;SDS011;8458;52.220;9.884;2022-10-31T09:38:09;16.40;;;14.80;;
16689;SDS011;8458;52.220;9.884;2022-10-31T09:40:40;16.80;;;15.10;;
16689;SDS011;8458;52.220;9.884;2022-10-31T09:43:10;16.30;;;14.70;;
16689;SDS011;8458;52.220;9.884;2022-10-31T09:45:44;15.60;;;14.33;;
16689;SDS011;8458;52.220;9.884;2022-10-31T09:48:24;16.00;;;14.77;;
16689;SDS011;8458;52.220;9.884;2022-10-31T09:51:03;15.33;;;13.90;;
16689;SDS011;8458;52.220;9.884;2022-10-31T09:53:34;15.93;;;14.50;;
16689;SDS011;8458;52.220;9.884;2022-10-31T09:56:05;14.87;;;13.70;;
16689;SDS011;8458;52.220;9.884;2022-10-31T09:58:38;15.00;;;13.80;;
16689;SDS011;8458;52.220;9.884;2022-10-31T10:01:09;13.03;;;11.93;;
16689;SDS011;8458;52.220;9.884;2022-10-31T10:03:50;14.13;;;12.97;;
16689;SDS011;8458;52.220;9.884;2022-10-31T10:06:21;13.67;;;12.47;;
16689;SDS011;8458;52.220;9.884;2022-10-31T10:08:50;12.77;;;11.33;;
16689;SDS011;8458;52.220;9.884;2022-10-31T10:11:23;13.90;;;12.43;;
16689;SDS011;8458;52.220;9.884;2022-10-31T10:14:04;13.80;;;12.33;;
16689;SDS011;8458;52.220;9.884;2022-10-31T10:16:47;12.67;;;11.57;;
16689;SDS011;8458;52.220;9.884;2022-10-31T10:19:30;12.57;;;11.37;;
16689;SDS011;8458;52.220;9.884;2022-10-31T10:22:09;12.53;;;11.53;;
16689;SDS011;8458;52.220;9.884;2022-10-31T10:24:48;12.63;;;11.63;;
16689;SDS011;8458;52.220;9.884;2022-10-31T10:27:27;13.13;;;11.93;;
16689;SDS011;8458;52.220;9.884;2022-10-31T10:30:04;12.50;;;11.30;;
16689;SDS011;8458;52.220;9.884;2022-10-31T10:32:42;13.00;;;11.90;;
16689;SDS011;8458;52.220;9.884;2022-10-31T10:35:14;12.80;;;11.57;;
16689;SDS011;8458;52.220;9.884;2022-10-31T10:37:49;12.23;;;11.13;;
16689;SDS011;8458;52.220;9.884;2022-10-31T10:40:18;13.50;;;12.20;;
16689;SDS011;8458;52.220;9.884;2022-10-31T10:42:50;11.43;;;10.43;;
16689;SDS011;8458;52.220;9.884;2022-10-31T10:45:42;12.17;;;10.87;;
16689;SDS011;8458;52.220;9.884;2022-10-31T10:48:32;11.33;;;10.30;;
16689;SDS011;8458;52.220;9.884;2022-10-31T10:51:14;11.20;;;10.20;;
16689;SDS011;8458;52.220;9.884;2022-10-31T10:53:49;13.23;;;10.07;;
16689;SDS011;8458;52.220;9.884;2022-10-31T10:56:36;10.37;;;9.47;;
16689;SDS011;8458;52.220;9.884;2022-10-31T10:59:11;10.70;;;9.80;;
16689;SDS011;8458;52.220;9.884;2022-10-31T11:01:39;10.77;;;9.80;;
16689;SDS011;8458;52.220;9.884;2022-10-31T11:04:14;10.63;;;9.63;;
16689;SDS011;8458;52.220;9.884;2022-10-31T11:06:59;10.37;;;9.37;;
16689;SDS011;8458;52.220;9.884;2022-10-31T11:09:26;10.63;;;9.73;;
16689;SDS011;8458;52.220;9.884;2022-10-31T11:11:53;10.83;;;9.93;;
16689;SDS011;8458;52.220;9.884;2022-10-31T11:14:21;10.23;;;8.60;;
16689;SDS011;8458;52.220;9.884;2022-10-31T11:16:49;9.90;;;8.90;;
16689;SDS011;8458;52.220;9.884;2022-10-31T11:19:19;8.90;;;8.10;;
16689;SDS011;8458;52.220;9.884;2022-10-31T11:21:48;8.90;;;7.47;;
16689;SDS011;8458;52.220;9.884;2022-10-31T11:24:17;10.03;;;7.43;;
16689;SDS011;8458;52.220;9.884;2022-10-31T11:26:46;9.87;;;8.43;;
16689;SDS011;8458;52.220;9.884;2022-10-31T11:29:15;10.03;;;8.60;;
16689;SDS011;8458;52.220;9.884;2022-10-31T11:31:44;9.60;;;8.70;;
16689;SDS011;8458;52.220;9.884;2022-10-31T11:34:14;9.77;;;8.93;;
16689;SDS011;8458;52.220;9.884;2022-10-31T11:36:45;10.37;;;9.27;;
16689;SDS011;8458;52.220;9.884;2022-10-31T11:39:14;10.33;;;8.40;;
16689;SDS011;8458;52.220;9.884;2022-10-31T11:41:45;9.93;;;8.93;;
16689;SDS011;8458;52.220;9.884;2022-10-31T11:44:13;10.37;;;9.47;;
16689;SDS011;8458;52.220;9.884;2022-10-31T11:46:44;8.93;;;8.13;;
16689;SDS011;8458;52.220;9.884;2022-10-31T11:49:14;8.83;;;8.03;;
16689;SDS011;8458;52.220;9.884;2022-10-31T11:51:46;7.90;;;7.20;;
16689;SDS011;8458;52.220;9.884;2022-10-31T11:54:20;8.57;;;7.63;;
16689;SDS011;8458;52.220;9.884;2022-10-31T11:56:49;8.13;;;7.37;;
16689;SDS011;8458;52.220;9.884;2022-10-31T11:59:18;7.03;;;6.43;;
16689;SDS011;8458;52.220;9.884;2022-10-31T12:01:49;8.97;;;6.83;;
16689;SDS011;8458;52.220;9.884;2022-10-31T12:04:17;9.37;;;8.43;;
16689;SDS011;8458;52.220;9.884;2022-10-31T12:06:44;10.00;;;9.00;;
16689;SDS011;8458;52.220;9.884;2022-10-31T12:09:20;10.53;;;9.53;;
16689;SDS011;8458;52.220;9.884;2022-10-31T12:11:52;10.13;;;9.17;;
16689;SDS011;8458;52.220;9.884;2022-10-31T12:14:31;9.37;;;8.67;;
16689;SDS011;8458;52.220;9.884;2022-10-31T12:17:03;12.37;;;9.70;;
16689;SDS011;8458;52.220;9.884;2022-10-31T12:19:39;9.90;;;9.10;;
16689;SDS011;8458;52.220;9.884;2022-10-31T12:22:12;10.73;;;9.83;;
16689;SDS011;8458;52.220;9.884;2022-10-31T12:24:48;9.83;;;9.03;;
16689;SDS011;8458;52.220;9.884;2022-10-31T12:27:28;10.80;;;9.90;;
16689;SDS011;8458;52.220;9.884;2022-10-31T12:30:14;10.10;;;9.13;;
16689;SDS011;8458;52.220;9.884;2022-10-31T12:32:52;10.30;;;9.50;;
16689;SDS011;8458;52.220;9.884;2022-10-31T12:35:35;8.83;;;8.03;;
16689;SDS011;8458;52.220;9.884;2022-10-31T12:38:12;9.53;;;8.63;;
16689;SDS011;8458;52.220;9.884;2022-10-31T12:40:57;10.23;;;9.30;;
16689;SDS011;8458;52.220;9.884;2022-10-31T12:43:36;9.53;;;8.67;;
16689;SDS011;8458;52.220;9.884;2022-10-31T12:46:13;9.30;;;8.40;;
16689;SDS011;8458;52.220;9.884;2022-10-31T12:49:01;9.17;;;8.40;;
16689;SDS011;8458;52.220;9.884;2022-10-31T12:51:57;10.23;;;8.50;;
16689;SDS011;8458;52.220;9.884;2022-10-31T12:54:36;9.70;;;8.77;;
16689;SDS011;8458;52.220;9.884;2022-10-31T12:57:19;11.53;;;8.70;;
16689;SDS011;8458;52.220;9.884;2022-10-31T12:59:51;9.10;;;8.20;;
16689;SDS011;8458;52.220;9.884;2022-10-31T13:02:24;10.87;;;9.03;;
16689;SDS011;8458;52.220;9.884;2022-10-31T13:04:54;9.17;;;8.47;;
16689;SDS011;8458;52.220;9.884;2022-10-31T13:07:25;9.67;;;8.87;;
16689;SDS011;8458;52.220;9.884;2022-10-31T13:09:58;10.53;;;9.53;;
16689;SDS011;8458;52.220;9.884;2022-10-31T13:12:31;9.60;;;8.70;;
16689;SDS011;8458;52.220;9.884;2022-10-31T13:15:02;9.33;;;8.53;;
16689;SDS011;8458;52.220;9.884;2022-10-31T13:17:33;9.73;;;8.83;;
16689;SDS011;8458;52.220;9.884;2022-10-31T13:20:08;10.23;;;9.23;;
16689;SDS011;8458;52.220;9.884;2022-10-31T13:22:41;9.23;;;8.53;;
16689;SDS011;8458;52.220;9.884;2022-10-31T13:25:11;10.20;;;9.20;;
16689;SDS011;8458;52.220;9.884;2022-10-31T13:27:44;8.97;;;8.27;;
16689;SDS011;8458;52.220;9.884;2022-10-31T13:30:16;10.47;;;9.47;;
16689;SDS011;8458;52.220;9.884;2022-10-31T13:32:45;11.53;;;10.20;;
16689;SDS011;8458;52.220;9.884;2022-10-31T13:35:17;9.67;;;8.77;;
16689;SDS011;8458;52.220;9.884;2022-10-31T13:37:49;11.77;;;10.50;;
16689;SDS011;8458;52.220;9.884;2022-10-31T13:40:22;10.97;;;9.87;;
16689;SDS011;8458;52.220;9.884;2022-10-31T13:43:02;12.07;;;10.83;;
16689;SDS011;8458;52.220;9.884;2022-10-31T13:45:46;12.10;;;11.00;;
16689;SDS011;8458;52.220;9.884;2022-10-31T13:48:18;11.70;;;10.70;;
16689;SDS011;8458;52.220;9.884;2022-10-31T13:50:58;13.40;;;10.47;;
16689;SDS011;8458;52.220;9.884;2022-10-31T13:53:35;10.20;;;9.27;;
16689;SDS011;8458;52.220;9.884;2022-10-31T13:56:12;10.90;;;9.80;;
16689;SDS011;8458;52.220;9.884;2022-10-31T13:58:53;8.83;;;7.93;;
16689;SDS011;8458;52.220;9.884;2022-10-31T14:01:23;9.47;;;8.67;;
16689;SDS011;8458;52.220;9.884;2022-10-31T14:03:55;9.77;;;7.97;;
16689;SDS011;8458;52.220;9.884;2022-10-31T14:06:34;8.27;;;7.57;;
16689;SDS011;8458;52.220;9.884;2022-10-31T14:09:02;7.27;;;6.57;;
16689;SDS011;8458;52.220;9.884;2022-10-31T14:11:29;8.53;;;7.13;;
16689;SDS011;8458;52.220;9.884;2022-10-31T14:13:57;7.70;;;7.10;;
16689;SDS011;8458;52.220;9.884;2022-10-31T14:16:26;7.80;;;7.03;;
16689;SDS011;8458;52.220;9.884;2022-10-31T14:18:57;7.90;;;7.03;;
16689;SDS011;8458;52.220;9.884;2022-10-31T14:21:28;7.13;;;6.40;;
16689;SDS011;8458;52.220;9.884;2022-10-31T14:23:56;7.27;;;6.43;;
16689;SDS011;8458;52.220;9.884;2022-10-31T14:26:31;7.60;;;6.80;;
16689;SDS011;8458;52.220;9.884;2022-10-31T14:29:01;7.87;;;6.70;;
16689;SDS011;8458;52.220;9.884;2022-10-31T14:31:51;6.40;;;5.90;;
16689;SDS011;8458;52.220;9.884;2022-10-31T14:34:22;6.83;;;6.13;;
16689;SDS011;8458;52.220;9.884;2022-10-31T14:36:58;6.03;;;5.53;;
16689;SDS011;8458;52.220;9.884;2022-10-31T14:39:30;6.70;;;5.27;;
16689;SDS011;8458;52.220;9.884;2022-10-31T14:42:06;6.00;;;5.40;;
16689;SDS011;8458;52.220;9.884;2022-10-31T14:45:01;7.53;;;6.10;;
16689;SDS011;8458;52.220;9.884;2022-10-31T14:47:45;6.87;;;6.27;;
16689;SDS011;8458;52.220;9.884;2022-10-31T14:50:23;7.43;;;6.73;;
16689;SDS011;8458;52.220;9.884;2022-10-31T14:52:57;7.73;;;7.10;;
16689;SDS011;8458;52.220;9.884;2022-10-31T14:55:28;8.83;;;8.03;;
16689;SDS011;8458;52.220;9.884;2022-10-31T14:57:56;7.97;;;7.27;;
16689;SDS011;8458;52.220;9.884;2022-10-31T15:00:26;8.30;;;7.60;;
16689;SDS011;8458;52.220;9.884;2022-10-31T15:02:58;8.53;;;7.73;;
16689;SDS011;8458;52.220;9.884;2022-10-31T15:05:32;9.47;;;8.67;;
16689;SDS011;8458;52.220;9.884;2022-10-31T15:08:12;9.50;;;8.70;;
16689;SDS011;8458;52.220;9.884;2022-10-31T15:10:44;7.43;;;6.73;;
16689;SDS011;8458;52.220;9.884;2022-10-31T15:13:15;8.47;;;7.63;;